AirNav   Bose Proflight and A20 aviation headeets
 
 1374 users online  

3OR3 Hessel Tractor Heliport
Portland, Oregon, USA

GOING TO PORTLAND?


FAA INFORMATION EFFECTIVE 31 JANUARY 2019

Location

FAA Identifier: 3OR3
Lat/Long: 45-35-19.4230N / 122-39-14.3470W
45-35.323717N / 122-39.239117W
45.5887286 / -122.6539853
(estimated)
Elevation: 284 ft. / 87 m (estimated)
Variation: 19E (1985)
Time zone: UTC -8 (UTC -7 during Daylight Saving Time)
Zip code: 97211

Heliport Operations

Heliport use: Private use. Permission required prior to landing
Activation date: 06/1977
Control tower: no
ARTCC: SEATTLE CENTER
FSS: MC MINNVILLE FLIGHT SERVICE STATION
Attendance: 0900-1700
Wind indicator: yes
Segmented circle: no

Heliport Communications

WX ASOS at VUO (1.9 nm N): 135.125 (360-696-1280)
WX ASOS at PDX (2.4 nm E): PHONE (503) 493-7687
WX ASOS at TTD (11 nm E): 135.625 (503-492-2887)
WX ASOS at HIO (13 nm W): PHONE 503-640-2984
WX ASOS at SPB (14 nm NW): 135.875 (503-543-6401)

Nearby radio navigation aids

VOR radial/distance  VOR name  Freq  Var
BTGr174/9.9BATTLE GROUND VORTAC116.6021E
UBGr023/19.6NEWBERG VOR/DME117.4021E

 
NDB name  Hdg/Dist  Freq  Var  ID
BANKS083/16.635616EPND .--. -. -..
KELSO145/35.725617ELSO .-.. ... ---

Heliport Services

Runway Information

Helipad H1

Dimensions: 40 x 40 ft. / 12 x 12 m
Surface: concrete, in fair condition
Latitude: 45-35.323717N
Longitude: 122-39.239117W
Elevation: 284.0 ft.
Traffic pattern: leftleft
Markings: none, in fair condition

Heliport Ownership and Management from official FAA records

Ownership: Privately-owned
Owner: JACK HESSEL
1425 NE COLUMBIA BLVD
PORTLAND, OR 97211
Phone 503-289-1103
Manager: JACK HESSEL
1425 NE COLUMBIA BLVD
PORTLAND, OR 97211
Phone 503-289-1103

Heliport Operational Statistics

Aircraft based on the field: 1
Helicopters: 1
    

Additional Remarks

FOR CD CTC PORTLAND APCH AT 503-493-7545.

Instrument Procedures

There are no published instrument procedures at 3OR3.

Some nearby airports with instrument procedures:

KVUO - Pearson Field Airport (2 nm N)
KPDX - Portland International Airport (2 nm E)
KTTD - Portland-Troutdale Airport (11 nm E)
KHIO - Portland-Hillsboro Airport (13 nm W)
KSPB - Scappoose Industrial Airpark (14 nm NW)
 
Loc | Ops | Rwys | IFR | FBO | Links
Com | Nav | Svcs | Stats | Notes
Area around 3OR3 (Hessel Tractor Heliport)
 
Road maps at: MapQuest Bing Google
 
Aerial photo
WARNING: Photo may not be current or correct
Aerial photo of 3OR3 (Hessel Tractor Heliport)
Do you have a better or more recent aerial photo of Hessel Tractor Heliport that you would like to share? If so, please send us your photo.

 
Sectional chart

 
Airport distance calculator
Flying to Hessel Tractor Heliport? Find the distance to fly.

From to 3OR3

Sunrise and sunset
Times for 22-Feb-2019
 Local
(UTC-8)
 Zulu
(UTC)
Morning civil twilight06:3214:32
Sunrise07:0215:02
Sunset17:4601:46
Evening civil twilight18:1602:16

Current date and time
Zulu (UTC)  22-Feb-2019 15:22:52
Local (UTC-8)  22-Feb-2019 07:22:52
 
METAR
KVUO 
2nm N 
221453Z AUTO 11006KT 10SM BKN110 01/M03 A3013 RMK AO2 SLP204 T00061028 58004
KPDX 
2nm E 
221453Z 11009KT 10SM BKN110 OVC150 01/M03 A3014 RMK AO2 SLP206 T00061028 58003
KTTD 
10nm E 
221453Z 10003KT 10SM OVC110 M01/M03 A3015 RMK AO2 SLP208 T10061033 58004
KHIO 
13nm W 
221453Z 00000KT 9SM BKN100 M01/M02 A3012 RMK AO2 SLP204 T10111022 58003
KSPB 
14nm NW 
221453Z AUTO 00000KT 10SM SCT095 00/M02 A3013 RMK AO2 SLP202 T00001022 58003
TAF
KPDX 
2nm E 
221128Z 2212/2312 11006KT P6SM SCT120 BKN200 FM221800 16007KT P6SM SCT060 BKN120 FM222100 19012KT P6SM -RA BKN025 OVC050 FM222300 20010KT 6SM -RA BKN015 OVC040 FM230100 28007KT P6SM VCSH SCT025 BKN040 FM230600 VRB03KT P6SM VCSH BKN040
KTTD 
10nm E 
221128Z 2212/2312 10007KT P6SM SCT120 BKN200 FM221800 11008KT P6SM SCT060 BKN120 FM222100 21008KT P6SM -RA BKN025 OVC050 FM222300 21010KT 6SM -RA BKN015 OVC040 FM230200 25007KT P6SM -SHRA BKN025 BKN040 FM230400 24003KT P6SM VCSH SCT030 BKN040
KHIO 
13nm W 
221128Z 2212/2312 VRB03KT P6SM SCT120 BKN200 FM221800 18004KT P6SM SCT060 BKN120 FM222100 19010KT P6SM -RA BKN025 OVC050 FM222300 21008KT 6SM -RA BKN015 OVC040 FM230100 28004KT P6SM -SHRA SCT025 BKN040 FM230600 VRB03KT P6SM VCSH BKN040
NOTAMs
Click for the latest NOTAMs
NOTAMs are issued by the DoD/FAA and will open in a separate window not controlled by AirNav.

 

 
 

Would you like to see your business listed on this page?

 If your business provides an interesting product or service to pilots, flight crews, aircraft, or users of the Hessel Tractor Heliport, you should consider listing it here.  To start the listing process, click on the button below
 
Add a business
 

Other Pages about Hessel Tractor Heliport

Update a link
 
Copyright © AirNav, LLC. All rights reserved. Privacy Policy  Contact